sensor_id;sensor_type;location;lat;lon;timestamp;temperature;humidity
56542;DHT22;42438;53.174;6.730;2024-02-23T00:01:20;5.40;99.90
56542;DHT22;42438;53.174;6.730;2024-02-23T00:03:51;6.10;25.20
56542;DHT22;42438;53.174;6.730;2024-02-23T00:06:21;5.20;1.00
56542;DHT22;42438;53.174;6.730;2024-02-23T00:08:57;5.30;23.90
56542;DHT22;42438;53.174;6.730;2024-02-23T00:11:28;5.90;1.00
56542;DHT22;42438;53.174;6.730;2024-02-23T00:13:59;5.40;17.20
56542;DHT22;42438;53.174;6.730;2024-02-23T00:16:30;5.10;55.80
56542;DHT22;42438;53.174;6.730;2024-02-23T00:19:01;5.90;43.60
56542;DHT22;42438;53.174;6.730;2024-02-23T00:21:31;5.10;34.60
56542;DHT22;42438;53.174;6.730;2024-02-23T00:24:02;5.80;61.20
56542;DHT22;42438;53.174;6.730;2024-02-23T00:26:33;5.10;45.50
56542;DHT22;42438;53.174;6.730;2024-02-23T00:29:03;5.30;92.40
56542;DHT22;42438;53.174;6.730;2024-02-23T00:31:34;5.30;99.90
56542;DHT22;42438;53.174;6.730;2024-02-23T00:34:06;5.70;99.40
56542;DHT22;42438;53.174;6.730;2024-02-23T00:36:41;5.40;99.90
56542;DHT22;42438;53.174;6.730;2024-02-23T00:39:12;5.40;86.00
56542;DHT22;42438;53.174;6.730;2024-02-23T00:41:43;5.10;1.00
56542;DHT22;42438;53.174;6.730;2024-02-23T00:44:13;5.90;1.00
56542;DHT22;42438;53.174;6.730;2024-02-23T00:46:44;5.40;99.90
56542;DHT22;42438;53.174;6.730;2024-02-23T00:49:15;5.10;1.00
56542;DHT22;42438;53.174;6.730;2024-02-23T00:51:45;5.40;99.90
56542;DHT22;42438;53.174;6.730;2024-02-23T00:54:16;5.00;1.00
56542;DHT22;42438;53.174;6.730;2024-02-23T00:56:47;5.70;1.00
56542;DHT22;42438;53.174;6.730;2024-02-23T00:59:17;5.00;99.90
56542;DHT22;42438;53.174;6.730;2024-02-23T01:01:48;5.50;99.90
56542;DHT22;42438;53.174;6.730;2024-02-23T01:04:18;5.20;1.00
56542;DHT22;42438;53.174;6.730;2024-02-23T01:06:49;5.50;99.90
56542;DHT22;42438;53.174;6.730;2024-02-23T01:09:20;5.20;1.00
56542;DHT22;42438;53.174;6.730;2024-02-23T01:11:51;6.10;9.60
56542;DHT22;42438;53.174;6.730;2024-02-23T01:14:21;6.00;99.90
56542;DHT22;42438;53.174;6.730;2024-02-23T01:16:52;5.00;1.00
56542;DHT22;42438;53.174;6.730;2024-02-23T01:19:23;4.60;99.90
56542;DHT22;42438;53.174;6.730;2024-02-23T01:21:54;4.80;20.30
56542;DHT22;42438;53.174;6.730;2024-02-23T01:24:29;4.70;1.00
56542;DHT22;42438;53.174;6.730;2024-02-23T01:27:00;5.50;1.00
56542;DHT22;42438;53.174;6.730;2024-02-23T01:29:31;4.60;1.00
56542;DHT22;42438;53.174;6.730;2024-02-23T01:32:03;4.80;1.00
56542;DHT22;42438;53.174;6.730;2024-02-23T01:34:34;4.60;1.00
56542;DHT22;42438;53.174;6.730;2024-02-23T01:37:04;5.70;1.00
56542;DHT22;42438;53.174;6.730;2024-02-23T01:39:35;5.00;1.00
56542;DHT22;42438;53.174;6.730;2024-02-23T01:42:06;4.80;16.60
56542;DHT22;42438;53.174;6.730;2024-02-23T01:44:36;4.60;50.00
56542;DHT22;42438;53.174;6.730;2024-02-23T01:47:07;5.20;61.00
56542;DHT22;42438;53.174;6.730;2024-02-23T01:49:38;5.20;58.10
56542;DHT22;42438;53.174;6.730;2024-02-23T01:52:09;4.90;70.60
56542;DHT22;42438;53.174;6.730;2024-02-23T01:54:40;5.30;82.40
56542;DHT22;42438;53.174;6.730;2024-02-23T01:57:11;4.70;92.40
56542;DHT22;42438;53.174;6.730;2024-02-23T01:59:42;4.60;99.90
56542;DHT22;42438;53.174;6.730;2024-02-23T02:02:12;4.70;99.90
56542;DHT22;42438;53.174;6.730;2024-02-23T02:04:43;4.90;99.90
56542;DHT22;42438;53.174;6.730;2024-02-23T02:07:14;4.90;99.90
56542;DHT22;42438;53.174;6.730;2024-02-23T02:09:45;4.80;99.90
56542;DHT22;42438;53.174;6.730;2024-02-23T02:12:26;5.50;99.90
56542;DHT22;42438;53.174;6.730;2024-02-23T02:14:57;4.80;99.90
56542;DHT22;42438;53.174;6.730;2024-02-23T02:17:29;4.70;99.90
56542;DHT22;42438;53.174;6.730;2024-02-23T02:20:02;5.00;99.90
56542;DHT22;42438;53.174;6.730;2024-02-23T02:22:36;4.70;99.90
56542;DHT22;42438;53.174;6.730;2024-02-23T02:25:07;5.10;99.90
56542;DHT22;42438;53.174;6.730;2024-02-23T02:27:37;4.90;99.90
56542;DHT22;42438;53.174;6.730;2024-02-23T02:30:09;6.10;99.90
56542;DHT22;42438;53.174;6.730;2024-02-23T02:32:39;5.00;99.90
56542;DHT22;42438;53.174;6.730;2024-02-23T02:35:11;5.00;99.90
56542;DHT22;42438;53.174;6.730;2024-02-23T02:37:42;5.10;99.90
56542;DHT22;42438;53.174;6.730;2024-02-23T02:40:13;5.40;99.90
56542;DHT22;42438;53.174;6.730;2024-02-23T02:42:43;5.30;99.90
56542;DHT22;42438;53.174;6.730;2024-02-23T02:45:14;6.20;99.90
56542;DHT22;42438;53.174;6.730;2024-02-23T02:47:44;5.20;99.90
56542;DHT22;42438;53.174;6.730;2024-02-23T02:50:16;5.40;99.90
56542;DHT22;42438;53.174;6.730;2024-02-23T02:52:46;5.20;99.90
56542;DHT22;42438;53.174;6.730;2024-02-23T02:55:17;5.50;99.90
56542;DHT22;42438;53.174;6.730;2024-02-23T02:57:47;5.50;99.90
56542;DHT22;42438;53.174;6.730;2024-02-23T03:00:18;5.40;99.90
56542;DHT22;42438;53.174;6.730;2024-02-23T03:02:49;5.40;99.90
56542;DHT22;42438;53.174;6.730;2024-02-23T03:05:19;5.30;99.90
56542;DHT22;42438;53.174;6.730;2024-02-23T03:07:50;5.50;99.90
56542;DHT22;42438;53.174;6.730;2024-02-23T03:10:21;5.60;14.90
56542;DHT22;42438;53.174;6.730;2024-02-23T03:12:52;5.60;99.90
56542;DHT22;42438;53.174;6.730;2024-02-23T03:15:22;5.60;99.90
56542;DHT22;42438;53.174;6.730;2024-02-23T03:17:53;5.60;99.90
56542;DHT22;42438;53.174;6.730;2024-02-23T03:20:25;5.30;1.00
56542;DHT22;42438;53.174;6.730;2024-02-23T03:22:55;5.40;99.90
56542;DHT22;42438;53.174;6.730;2024-02-23T03:25:26;5.90;99.90
56542;DHT22;42438;53.174;6.730;2024-02-23T03:27:56;6.50;99.90
56542;DHT22;42438;53.174;6.730;2024-02-23T03:30:28;5.90;1.00
56542;DHT22;42438;53.174;6.730;2024-02-23T03:32:58;5.50;1.00
56542;DHT22;42438;53.174;6.730;2024-02-23T03:35:29;5.50;1.00
56542;DHT22;42438;53.174;6.730;2024-02-23T03:37:59;5.60;99.90
56542;DHT22;42438;53.174;6.730;2024-02-23T03:40:30;5.40;99.90
56542;DHT22;42438;53.174;6.730;2024-02-23T03:43:01;5.70;89.10
56542;DHT22;42438;53.174;6.730;2024-02-23T03:45:32;5.50;1.00
56542;DHT22;42438;53.174;6.730;2024-02-23T03:48:04;5.40;1.00
56542;DHT22;42438;53.174;6.730;2024-02-23T03:50:34;5.30;99.90
56542;DHT22;42438;53.174;6.730;2024-02-23T03:53:05;5.40;1.00
56542;DHT22;42438;53.174;6.730;2024-02-23T03:55:36;5.80;99.90
56542;DHT22;42438;53.174;6.730;2024-02-23T03:58:06;5.60;99.90
56542;DHT22;42438;53.174;6.730;2024-02-23T04:00:37;6.00;1.00
56542;DHT22;42438;53.174;6.730;2024-02-23T04:03:08;5.50;1.00
56542;DHT22;42438;53.174;6.730;2024-02-23T04:05:39;6.00;1.00
56542;DHT22;42438;53.174;6.730;2024-02-23T04:08:10;5.30;99.90
56542;DHT22;42438;53.174;6.730;2024-02-23T04:10:40;5.20;99.90
56542;DHT22;42438;53.174;6.730;2024-02-23T04:13:11;6.40;99.90
56542;DHT22;42438;53.174;6.730;2024-02-23T04:15:44;5.10;99.90
56542;DHT22;42438;53.174;6.730;2024-02-23T04:18:15;5.50;87.10
56542;DHT22;42438;53.174;6.730;2024-02-23T04:20:45;5.30;1.00
56542;DHT22;42438;53.174;6.730;2024-02-23T04:23:16;5.60;1.00
56542;DHT22;42438;53.174;6.730;2024-02-23T04:25:47;5.20;1.00
56542;DHT22;42438;53.174;6.730;2024-02-23T04:28:17;5.50;1.00
56542;DHT22;42438;53.174;6.730;2024-02-23T04:30:48;5.10;1.00
56542;DHT22;42438;53.174;6.730;2024-02-23T04:33:19;5.30;99.90
56542;DHT22;42438;53.174;6.730;2024-02-23T04:35:49;6.20;99.90
56542;DHT22;42438;53.174;6.730;2024-02-23T04:38:20;4.90;1.00
56542;DHT22;42438;53.174;6.730;2024-02-23T04:40:50;5.10;1.00
56542;DHT22;42438;53.174;6.730;2024-02-23T04:43:21;5.20;99.90
56542;DHT22;42438;53.174;6.730;2024-02-23T04:45:52;5.80;99.90
56542;DHT22;42438;53.174;6.730;2024-02-23T04:48:22;5.00;99.90
56542;DHT22;42438;53.174;6.730;2024-02-23T04:50:53;5.30;99.90
56542;DHT22;42438;53.174;6.730;2024-02-23T04:53:24;4.80;99.90
56542;DHT22;42438;53.174;6.730;2024-02-23T04:55:54;4.80;99.90
56542;DHT22;42438;53.174;6.730;2024-02-23T04:58:25;5.50;99.90
56542;DHT22;42438;53.174;6.730;2024-02-23T05:00:56;4.80;99.90
56542;DHT22;42438;53.174;6.730;2024-02-23T05:03:26;4.80;99.90
56542;DHT22;42438;53.174;6.730;2024-02-23T05:05:57;4.90;99.90
56542;DHT22;42438;53.174;6.730;2024-02-23T05:08:28;5.00;1.00
56542;DHT22;42438;53.174;6.730;2024-02-23T05:11:00;4.70;1.00
56542;DHT22;42438;53.174;6.730;2024-02-23T05:13:32;5.70;1.00
56542;DHT22;42438;53.174;6.730;2024-02-23T05:16:03;5.80;99.90
56542;DHT22;42438;53.174;6.730;2024-02-23T05:18:34;4.90;99.90
56542;DHT22;42438;53.174;6.730;2024-02-23T05:21:04;5.60;1.00
56542;DHT22;42438;53.174;6.730;2024-02-23T05:23:35;6.00;99.90
56542;DHT22;42438;53.174;6.730;2024-02-23T05:26:06;4.60;99.90
56542;DHT22;42438;53.174;6.730;2024-02-23T05:28:38;5.80;99.90
56542;DHT22;42438;53.174;6.730;2024-02-23T05:31:09;4.80;99.90
56542;DHT22;42438;53.174;6.730;2024-02-23T05:33:40;4.70;99.90
56542;DHT22;42438;53.174;6.730;2024-02-23T05:36:11;4.70;99.90
56542;DHT22;42438;53.174;6.730;2024-02-23T05:38:42;5.80;99.90
56542;DHT22;42438;53.174;6.730;2024-02-23T05:41:16;5.50;99.90
56542;DHT22;42438;53.174;6.730;2024-02-23T05:43:46;5.80;93.00
56542;DHT22;42438;53.174;6.730;2024-02-23T05:46:17;4.90;55.80
56542;DHT22;42438;53.174;6.730;2024-02-23T05:48:49;4.90;93.80
56542;DHT22;42438;53.174;6.730;2024-02-23T05:51:19;4.80;99.90
56542;DHT22;42438;53.174;6.730;2024-02-23T05:53:50;5.80;99.90
56542;DHT22;42438;53.174;6.730;2024-02-23T05:56:20;6.00;1.00
56542;DHT22;42438;53.174;6.730;2024-02-23T05:58:52;4.70;1.00
56542;DHT22;42438;53.174;6.730;2024-02-23T06:01:22;4.70;1.00
56542;DHT22;42438;53.174;6.730;2024-02-23T06:03:53;4.80;80.90
56542;DHT22;42438;53.174;6.730;2024-02-23T06:06:25;5.70;99.90
56542;DHT22;42438;53.174;6.730;2024-02-23T06:08:56;4.80;99.90
56542;DHT22;42438;53.174;6.730;2024-02-23T06:11:26;5.80;99.90
56542;DHT22;42438;53.174;6.730;2024-02-23T06:13:57;5.90;99.90
56542;DHT22;42438;53.174;6.730;2024-02-23T06:16:27;6.10;1.00
56542;DHT22;42438;53.174;6.730;2024-02-23T06:18:58;6.00;99.90
56542;DHT22;42438;53.174;6.730;2024-02-23T06:21:30;5.00;99.90
56542;DHT22;42438;53.174;6.730;2024-02-23T06:24:01;5.00;1.00
56542;DHT22;42438;53.174;6.730;2024-02-23T06:26:31;5.30;37.50
56542;DHT22;42438;53.174;6.730;2024-02-23T06:29:02;4.90;1.00
56542;DHT22;42438;53.174;6.730;2024-02-23T06:31:34;4.70;99.90
56542;DHT22;42438;53.174;6.730;2024-02-23T06:34:05;4.70;99.90
56542;DHT22;42438;53.174;6.730;2024-02-23T06:36:36;4.70;99.90
56542;DHT22;42438;53.174;6.730;2024-02-23T06:39:07;6.00;99.90
56542;DHT22;42438;53.174;6.730;2024-02-23T06:41:39;4.60;1.00
56542;DHT22;42438;53.174;6.730;2024-02-23T06:44:09;4.60;45.60
56542;DHT22;42438;53.174;6.730;2024-02-23T06:46:40;5.60;48.80
56542;DHT22;42438;53.174;6.730;2024-02-23T06:49:11;5.50;1.00
56542;DHT22;42438;53.174;6.730;2024-02-23T06:51:42;4.60;99.90
56542;DHT22;42438;53.174;6.730;2024-02-23T06:54:12;5.10;99.90
56542;DHT22;42438;53.174;6.730;2024-02-23T06:56:43;4.50;99.90
56542;DHT22;42438;53.174;6.730;2024-02-23T06:59:14;4.70;99.90
56542;DHT22;42438;53.174;6.730;2024-02-23T07:01:51;5.10;11.80
56542;DHT22;42438;53.174;6.730;2024-02-23T07:04:22;4.50;1.00
56542;DHT22;42438;53.174;6.730;2024-02-23T07:06:53;4.50;1.00
56542;DHT22;42438;53.174;6.730;2024-02-23T07:09:23;5.70;99.90
56542;DHT22;42438;53.174;6.730;2024-02-23T07:11:54;5.80;1.00
56542;DHT22;42438;53.174;6.730;2024-02-23T07:14:25;5.60;99.90
56542;DHT22;42438;53.174;6.730;2024-02-23T07:16:55;4.80;99.90
56542;DHT22;42438;53.174;6.730;2024-02-23T07:19:26;5.60;99.90
56542;DHT22;42438;53.174;6.730;2024-02-23T07:21:57;5.00;99.90
56542;DHT22;42438;53.174;6.730;2024-02-23T07:24:27;5.20;99.90
56542;DHT22;42438;53.174;6.730;2024-02-23T07:26:58;5.70;99.90
56542;DHT22;42438;53.174;6.730;2024-02-23T07:29:28;4.90;38.10
56542;DHT22;42438;53.174;6.730;2024-02-23T07:31:59;5.80;99.90
56542;DHT22;42438;53.174;6.730;2024-02-23T07:34:31;5.30;99.90
56542;DHT22;42438;53.174;6.730;2024-02-23T07:37:02;6.40;1.00
56542;DHT22;42438;53.174;6.730;2024-02-23T07:39:33;5.30;99.90
56542;DHT22;42438;53.174;6.730;2024-02-23T07:42:03;6.20;99.90
56542;DHT22;42438;53.174;6.730;2024-02-23T07:44:36;5.50;92.80
56542;DHT22;42438;53.174;6.730;2024-02-23T07:47:07;5.60;1.00
56542;DHT22;42438;53.174;6.730;2024-02-23T07:49:38;5.30;1.00
56542;DHT22;42438;53.174;6.730;2024-02-23T07:52:11;5.50;99.90
56542;DHT22;42438;53.174;6.730;2024-02-23T07:54:42;6.10;99.90
56542;DHT22;42438;53.174;6.730;2024-02-23T07:57:12;5.30;1.00
56542;DHT22;42438;53.174;6.730;2024-02-23T07:59:47;5.60;1.00
56542;DHT22;42438;53.174;6.730;2024-02-23T08:02:17;5.20;1.00
56542;DHT22;42438;53.174;6.730;2024-02-23T08:04:48;6.10;1.00
56542;DHT22;42438;53.174;6.730;2024-02-23T08:07:20;5.20;1.00
56542;DHT22;42438;53.174;6.730;2024-02-23T08:09:51;5.30;1.00
56542;DHT22;42438;53.174;6.730;2024-02-23T08:12:21;5.80;1.00
56542;DHT22;42438;53.174;6.730;2024-02-23T08:14:52;5.80;1.00
56542;DHT22;42438;53.174;6.730;2024-02-23T08:17:23;5.80;99.90
56542;DHT22;42438;53.174;6.730;2024-02-23T08:19:55;5.90;99.90
56542;DHT22;42438;53.174;6.730;2024-02-23T08:22:26;5.70;99.90
56542;DHT22;42438;53.174;6.730;2024-02-23T08:24:57;5.70;99.90
56542;DHT22;42438;53.174;6.730;2024-02-23T08:27:27;6.00;99.90
56542;DHT22;42438;53.174;6.730;2024-02-23T08:29:58;6.00;99.90
56542;DHT22;42438;53.174;6.730;2024-02-23T08:32:29;6.00;39.40
56542;DHT22;42438;53.174;6.730;2024-02-23T08:35:00;6.00;1.00
56542;DHT22;42438;53.174;6.730;2024-02-23T08:37:30;5.90;1.00
56542;DHT22;42438;53.174;6.730;2024-02-23T08:40:01;6.10;1.00
56542;DHT22;42438;53.174;6.730;2024-02-23T08:42:32;6.00;1.00
56542;DHT22;42438;53.174;6.730;2024-02-23T08:45:03;6.20;1.00
56542;DHT22;42438;53.174;6.730;2024-02-23T08:47:33;6.00;99.90
56542;DHT22;42438;53.174;6.730;2024-02-23T08:50:06;6.00;99.90
56542;DHT22;42438;53.174;6.730;2024-02-23T08:52:37;6.00;99.90
56542;DHT22;42438;53.174;6.730;2024-02-23T08:55:08;6.30;99.90
56542;DHT22;42438;53.174;6.730;2024-02-23T08:57:38;6.40;99.90
56542;DHT22;42438;53.174;6.730;2024-02-23T09:00:09;6.30;99.90
56542;DHT22;42438;53.174;6.730;2024-02-23T09:02:40;6.30;99.90
56542;DHT22;42438;53.174;6.730;2024-02-23T09:05:12;7.80;99.90
56542;DHT22;42438;53.174;6.730;2024-02-23T09:07:43;6.30;72.50
56542;DHT22;42438;53.174;6.730;2024-02-23T09:10:15;6.40;45.50
56542;DHT22;42438;53.174;6.730;2024-02-23T09:12:46;6.40;26.80
56542;DHT22;42438;53.174;6.730;2024-02-23T09:15:17;6.60;1.00
56542;DHT22;42438;53.174;6.730;2024-02-23T09:17:48;6.40;1.00
56542;DHT22;42438;53.174;6.730;2024-02-23T09:20:18;6.40;1.00
56542;DHT22;42438;53.174;6.730;2024-02-23T09:22:49;6.50;1.00
56542;DHT22;42438;53.174;6.730;2024-02-23T09:25:20;6.60;1.00
56542;DHT22;42438;53.174;6.730;2024-02-23T09:27:51;6.80;1.00
56542;DHT22;42438;53.174;6.730;2024-02-23T09:30:22;6.90;1.00
56542;DHT22;42438;53.174;6.730;2024-02-23T09:32:52;6.70;1.00
56542;DHT22;42438;53.174;6.730;2024-02-23T09:35:23;6.70;99.90
56542;DHT22;42438;53.174;6.730;2024-02-23T09:37:54;7.10;99.90
56542;DHT22;42438;53.174;6.730;2024-02-23T09:40:25;7.20;99.90
56542;DHT22;42438;53.174;6.730;2024-02-23T09:42:57;7.10;99.90
56542;DHT22;42438;53.174;6.730;2024-02-23T09:45:28;7.40;99.90
56542;DHT22;42438;53.174;6.730;2024-02-23T09:48:00;7.30;99.90
56542;DHT22;42438;53.174;6.730;2024-02-23T09:50:33;7.40;99.90
56542;DHT22;42438;53.174;6.730;2024-02-23T09:53:05;7.20;99.90
56542;DHT22;42438;53.174;6.730;2024-02-23T09:55:39;7.10;99.90
56542;DHT22;42438;53.174;6.730;2024-02-23T09:58:12;7.30;99.30
56542;DHT22;42438;53.174;6.730;2024-02-23T10:00:43;7.10;84.80
56542;DHT22;42438;53.174;6.730;2024-02-23T10:03:14;7.40;69.40
56542;DHT22;42438;53.174;6.730;2024-02-23T10:05:45;7.30;44.60
56542;DHT22;42438;53.174;6.730;2024-02-23T10:08:16;7.30;1.30
56542;DHT22;42438;53.174;6.730;2024-02-23T10:10:47;7.30;1.00
56542;DHT22;42438;53.174;6.730;2024-02-23T10:13:20;7.40;1.00
56542;DHT22;42438;53.174;6.730;2024-02-23T10:15:51;7.50;1.00
56542;DHT22;42438;53.174;6.730;2024-02-23T10:18:22;7.60;1.00
56542;DHT22;42438;53.174;6.730;2024-02-23T10:20:53;7.60;1.00
56542;DHT22;42438;53.174;6.730;2024-02-23T10:23:24;7.60;1.00
56542;DHT22;42438;53.174;6.730;2024-02-23T10:25:55;7.90;1.00
56542;DHT22;42438;53.174;6.730;2024-02-23T10:28:27;7.80;1.00
56542;DHT22;42438;53.174;6.730;2024-02-23T10:30:57;8.10;99.90
56542;DHT22;42438;53.174;6.730;2024-02-23T10:33:31;8.10;99.90
56542;DHT22;42438;53.174;6.730;2024-02-23T10:36:05;7.90;99.90
56542;DHT22;42438;53.174;6.730;2024-02-23T10:38:38;8.10;99.90
56542;DHT22;42438;53.174;6.730;2024-02-23T10:41:13;7.80;99.90
56542;DHT22;42438;53.174;6.730;2024-02-23T10:43:48;8.00;99.90
56542;DHT22;42438;53.174;6.730;2024-02-23T10:46:19;7.90;99.90
56542;DHT22;42438;53.174;6.730;2024-02-23T10:48:52;7.80;99.90
56542;DHT22;42438;53.174;6.730;2024-02-23T10:51:25;7.70;99.90
56542;DHT22;42438;53.174;6.730;2024-02-23T10:53:55;7.80;99.90
56542;DHT22;42438;53.174;6.730;2024-02-23T10:56:27;7.60;99.90
56542;DHT22;42438;53.174;6.730;2024-02-23T10:58:59;7.60;99.90
56542;DHT22;42438;53.174;6.730;2024-02-23T11:01:29;7.60;99.90
56542;DHT22;42438;53.174;6.730;2024-02-23T11:04:02;7.50;99.90
56542;DHT22;42438;53.174;6.730;2024-02-23T11:06:36;7.60;99.90
56542;DHT22;42438;53.174;6.730;2024-02-23T11:09:07;7.50;99.90
56542;DHT22;42438;53.174;6.730;2024-02-23T11:11:39;7.70;99.90
56542;DHT22;42438;53.174;6.730;2024-02-23T11:14:09;7.60;99.90
56542;DHT22;42438;53.174;6.730;2024-02-23T11:16:40;7.50;99.90
56542;DHT22;42438;53.174;6.730;2024-02-23T11:19:11;7.80;99.90
56542;DHT22;42438;53.174;6.730;2024-02-23T11:21:42;7.70;99.90
56542;DHT22;42438;53.174;6.730;2024-02-23T11:24:15;7.60;99.90
56542;DHT22;42438;53.174;6.730;2024-02-23T11:26:48;7.80;99.90
56542;DHT22;42438;53.174;6.730;2024-02-23T11:29:18;7.80;99.90
56542;DHT22;42438;53.174;6.730;2024-02-23T11:31:51;7.70;99.90
56542;DHT22;42438;53.174;6.730;2024-02-23T11:34:27;7.70;99.90
56542;DHT22;42438;53.174;6.730;2024-02-23T11:36:58;7.60;99.90
56542;DHT22;42438;53.174;6.730;2024-02-23T11:39:38;7.70;99.90
56542;DHT22;42438;53.174;6.730;2024-02-23T11:42:09;7.80;99.90
56542;DHT22;42438;53.174;6.730;2024-02-23T11:44:40;7.60;99.90
56542;DHT22;42438;53.174;6.730;2024-02-23T11:47:11;7.80;99.90
56542;DHT22;42438;53.174;6.730;2024-02-23T11:49:42;7.80;99.90
56542;DHT22;42438;53.174;6.730;2024-02-23T11:52:12;7.50;99.90
56542;DHT22;42438;53.174;6.730;2024-02-23T11:54:44;7.40;99.90
56542;DHT22;42438;53.174;6.730;2024-02-23T11:57:15;7.40;99.90
56542;DHT22;42438;53.174;6.730;2024-02-23T11:59:46;7.50;99.90
56542;DHT22;42438;53.174;6.730;2024-02-23T12:02:16;7.40;1.00
56542;DHT22;42438;53.174;6.730;2024-02-23T12:04:47;7.30;1.00
56542;DHT22;42438;53.174;6.730;2024-02-23T12:07:18;7.30;1.00
56542;DHT22;42438;53.174;6.730;2024-02-23T12:09:50;7.30;1.00
56542;DHT22;42438;53.174;6.730;2024-02-23T12:12:21;7.20;1.00
56542;DHT22;42438;53.174;6.730;2024-02-23T12:14:52;7.00;1.00
56542;DHT22;42438;53.174;6.730;2024-02-23T12:17:23;7.20;1.00
56542;DHT22;42438;53.174;6.730;2024-02-23T12:20:01;7.20;1.00
56542;DHT22;42438;53.174;6.730;2024-02-23T12:22:34;7.00;1.00
56542;DHT22;42438;53.174;6.730;2024-02-23T12:25:06;7.00;1.00
56542;DHT22;42438;53.174;6.730;2024-02-23T12:27:36;7.30;1.00
56542;DHT22;42438;53.174;6.730;2024-02-23T12:30:13;7.00;1.00
56542;DHT22;42438;53.174;6.730;2024-02-23T12:32:45;7.00;1.00
56542;DHT22;42438;53.174;6.730;2024-02-23T12:35:15;7.20;1.00
56542;DHT22;42438;53.174;6.730;2024-02-23T12:37:47;7.30;1.00
56542;DHT22;42438;53.174;6.730;2024-02-23T12:40:18;7.60;1.00
56542;DHT22;42438;53.174;6.730;2024-02-23T12:42:49;7.30;1.00
56542;DHT22;42438;53.174;6.730;2024-02-23T12:45:20;7.30;1.00
56542;DHT22;42438;53.174;6.730;2024-02-23T12:47:51;7.10;1.00
56542;DHT22;42438;53.174;6.730;2024-02-23T12:50:21;7.30;1.00
56542;DHT22;42438;53.174;6.730;2024-02-23T12:52:52;7.30;1.00
56542;DHT22;42438;53.174;6.730;2024-02-23T12:55:23;7.40;20.80
56542;DHT22;42438;53.174;6.730;2024-02-23T12:57:54;7.10;36.60
56542;DHT22;42438;53.174;6.730;2024-02-23T13:00:24;7.40;62.80
56542;DHT22;42438;53.174;6.730;2024-02-23T13:02:55;7.20;89.00
56542;DHT22;42438;53.174;6.730;2024-02-23T13:05:26;7.40;99.90
56542;DHT22;42438;53.174;6.730;2024-02-23T13:07:56;7.30;99.90
56542;DHT22;42438;53.174;6.730;2024-02-23T13:10:28;7.50;99.90
56542;DHT22;42438;53.174;6.730;2024-02-23T13:12:58;7.50;99.90
56542;DHT22;42438;53.174;6.730;2024-02-23T13:15:29;7.30;99.90
56542;DHT22;42438;53.174;6.730;2024-02-23T13:17:59;7.60;99.90
56542;DHT22;42438;53.174;6.730;2024-02-23T13:20:30;7.70;99.90
56542;DHT22;42438;53.174;6.730;2024-02-23T13:23:01;7.40;99.90
56542;DHT22;42438;53.174;6.730;2024-02-23T13:25:32;7.50;99.90
56542;DHT22;42438;53.174;6.730;2024-02-23T13:28:02;7.70;99.90
56542;DHT22;42438;53.174;6.730;2024-02-23T13:30:35;7.40;99.90
56542;DHT22;42438;53.174;6.730;2024-02-23T13:33:06;7.30;99.90
56542;DHT22;42438;53.174;6.730;2024-02-23T13:35:38;7.30;99.90
56542;DHT22;42438;53.174;6.730;2024-02-23T13:38:09;7.40;99.90
56542;DHT22;42438;53.174;6.730;2024-02-23T13:40:40;7.30;99.90
56542;DHT22;42438;53.174;6.730;2024-02-23T13:43:10;7.60;99.90
56542;DHT22;42438;53.174;6.730;2024-02-23T13:45:51;7.40;99.90
56542;DHT22;42438;53.174;6.730;2024-02-23T13:48:22;7.30;99.90
56542;DHT22;42438;53.174;6.730;2024-02-23T13:50:53;7.60;99.90
56542;DHT22;42438;53.174;6.730;2024-02-23T13:53:24;7.70;99.90
56542;DHT22;42438;53.174;6.730;2024-02-23T13:55:54;7.50;99.90
56542;DHT22;42438;53.174;6.730;2024-02-23T13:58:25;7.50;99.90
56542;DHT22;42438;53.174;6.730;2024-02-23T14:00:56;7.80;99.90
56542;DHT22;42438;53.174;6.730;2024-02-23T14:03:27;7.60;99.90
56542;DHT22;42438;53.174;6.730;2024-02-23T14:05:58;7.80;99.90
56542;DHT22;42438;53.174;6.730;2024-02-23T14:08:28;7.60;99.90
56542;DHT22;42438;53.174;6.730;2024-02-23T14:11:00;7.90;99.90
56542;DHT22;42438;53.174;6.730;2024-02-23T14:13:31;7.60;99.90
56542;DHT22;42438;53.174;6.730;2024-02-23T14:16:01;8.30;99.90
56542;DHT22;42438;53.174;6.730;2024-02-23T14:18:34;7.70;99.90
56542;DHT22;42438;53.174;6.730;2024-02-23T14:21:07;7.80;99.90
56542;DHT22;42438;53.174;6.730;2024-02-23T14:23:38;8.00;99.90
56542;DHT22;42438;53.174;6.730;2024-02-23T14:26:09;7.90;99.90
56542;DHT22;42438;53.174;6.730;2024-02-23T14:28:40;8.00;99.90
56542;DHT22;42438;53.174;6.730;2024-02-23T14:31:11;8.00;99.90
56542;DHT22;42438;53.174;6.730;2024-02-23T14:33:42;8.10;99.90
56542;DHT22;42438;53.174;6.730;2024-02-23T14:36:12;8.10;99.90
56542;DHT22;42438;53.174;6.730;2024-02-23T14:38:43;7.90;99.90
56542;DHT22;42438;53.174;6.730;2024-02-23T14:41:14;8.10;99.90
56542;DHT22;42438;53.174;6.730;2024-02-23T14:43:44;8.10;99.90
56542;DHT22;42438;53.174;6.730;2024-02-23T14:46:15;7.80;99.90
56542;DHT22;42438;53.174;6.730;2024-02-23T14:48:45;8.20;99.90
56542;DHT22;42438;53.174;6.730;2024-02-23T14:51:18;8.00;99.90
56542;DHT22;42438;53.174;6.730;2024-02-23T14:53:52;8.10;99.90
56542;DHT22;42438;53.174;6.730;2024-02-23T14:56:23;8.20;99.90
56542;DHT22;42438;53.174;6.730;2024-02-23T14:58:54;8.20;99.90
56542;DHT22;42438;53.174;6.730;2024-02-23T15:01:24;8.30;99.90
56542;DHT22;42438;53.174;6.730;2024-02-23T15:03:55;8.10;99.90
56542;DHT22;42438;53.174;6.730;2024-02-23T15:06:26;8.30;99.90
56542;DHT22;42438;53.174;6.730;2024-02-23T15:08:57;7.90;99.90
56542;DHT22;42438;53.174;6.730;2024-02-23T15:11:28;7.90;99.90
56542;DHT22;42438;53.174;6.730;2024-02-23T15:13:59;7.80;99.90
56542;DHT22;42438;53.174;6.730;2024-02-23T15:16:31;8.00;99.90
56542;DHT22;42438;53.174;6.730;2024-02-23T15:19:02;8.00;99.90
56542;DHT22;42438;53.174;6.730;2024-02-23T15:21:32;8.00;99.90
56542;DHT22;42438;53.174;6.730;2024-02-23T15:24:03;8.10;99.90
56542;DHT22;42438;53.174;6.730;2024-02-23T15:26:34;8.10;99.90
56542;DHT22;42438;53.174;6.730;2024-02-23T15:29:05;8.50;99.90
56542;DHT22;42438;53.174;6.730;2024-02-23T15:31:35;8.00;99.90
56542;DHT22;42438;53.174;6.730;2024-02-23T15:34:08;7.70;99.90
56542;DHT22;42438;53.174;6.730;2024-02-23T15:36:39;7.60;99.90
56542;DHT22;42438;53.174;6.730;2024-02-23T15:39:09;7.80;99.90
56542;DHT22;42438;53.174;6.730;2024-02-23T15:41:41;7.70;99.90
56542;DHT22;42438;53.174;6.730;2024-02-23T15:44:11;8.30;99.90
56542;DHT22;42438;53.174;6.730;2024-02-23T15:46:42;7.30;99.90
56542;DHT22;42438;53.174;6.730;2024-02-23T15:49:13;7.10;99.90
56542;DHT22;42438;53.174;6.730;2024-02-23T15:51:45;7.40;99.90
56542;DHT22;42438;53.174;6.730;2024-02-23T15:54:15;7.90;99.90
56542;DHT22;42438;53.174;6.730;2024-02-23T15:56:46;7.20;99.90
56542;DHT22;42438;53.174;6.730;2024-02-23T15:59:17;7.20;99.90
56542;DHT22;42438;53.174;6.730;2024-02-23T16:01:47;7.20;99.90
56542;DHT22;42438;53.174;6.730;2024-02-23T16:04:18;7.50;99.90
56542;DHT22;42438;53.174;6.730;2024-02-23T16:06:49;7.30;99.90
56542;DHT22;42438;53.174;6.730;2024-02-23T16:09:20;7.30;99.90
56542;DHT22;42438;53.174;6.730;2024-02-23T16:11:51;7.60;99.90
56542;DHT22;42438;53.174;6.730;2024-02-23T16:14:22;7.40;99.90